createdAt,value
2023-01-17T00:24:06.906Z,2.64
2023-01-17T00:28:24.191Z,2.73
2023-01-17T00:32:29.301Z,2.84
2023-01-17T00:36:13.882Z,2.75
2023-01-17T00:40:42.835Z,2.86
2023-01-17T01:11:07.275Z,2.84
2023-01-17T01:15:41.404Z,2.84
2023-01-17T01:20:11.484Z,2.79
2023-01-17T01:29:11.204Z,2.87
2023-01-17T01:34:04.333Z,2.92
2023-01-17T01:38:12.087Z,2.97
2023-01-17T01:47:08.283Z,3.11
2023-01-17T01:56:25.828Z,3.18
2023-01-17T02:14:15.601Z,3.99
2023-01-17T02:18:31.615Z,4.06
2023-01-17T02:23:06.351Z,4.02
2023-01-17T02:27:23.901Z,4.06
2023-01-17T02:36:25.473Z,4.02
2023-01-17T02:41:14.663Z,3.86
2023-01-17T02:45:25.024Z,3.77
2023-01-17T02:49:48.336Z,3.67
2023-01-17T03:03:09.242Z,3.47
2023-01-17T03:11:23.963Z,3.66
2023-01-17T03:32:11.640Z,4.24
2023-01-17T03:36:36.623Z,4.31
2023-01-17T03:45:13.587Z,4.38
2023-01-17T04:11:28.032Z,4.83
2023-01-17T04:20:12.081Z,4.68
2023-01-17T04:24:25.298Z,4.75
2023-01-17T04:54:13.500Z,4.47
2023-01-17T05:15:23.893Z,4.39
2023-01-17T05:19:20.949Z,4.37
2023-01-17T05:31:08.091Z,4.31
2023-01-17T05:34:37.553Z,4.20
2023-01-17T05:37:58.279Z,4.24
2023-01-17T05:41:06.914Z,4.22
2023-01-17T05:44:16.926Z,4.20
2023-01-17T05:47:25.363Z,4.15
2023-01-17T05:50:33.766Z,4.12
2023-01-17T05:53:38.020Z,3.96
2023-01-17T05:56:41.324Z,3.97
2023-01-17T05:59:44.860Z,3.87
2023-01-17T06:02:50.030Z,3.82
2023-01-17T06:05:57.860Z,3.67
2023-01-17T06:09:03.581Z,3.69
2023-01-17T06:12:07.753Z,3.57
2023-01-17T06:15:14.234Z,3.55
2023-01-17T06:18:18.701Z,3.34
2023-01-17T06:21:25.486Z,3.36
2023-01-17T06:24:32.702Z,3.51
2023-01-17T06:27:38.202Z,3.49
2023-01-17T06:30:44.444Z,3.47
2023-01-17T06:33:49.437Z,2.87
2023-01-17T06:36:53.165Z,3.47
2023-01-17T06:39:57.942Z,3.47
2023-01-17T06:43:10.587Z,3.44
2023-01-17T06:46:18.896Z,3.38
2023-01-17T06:49:22.834Z,3.21
2023-01-17T06:52:27.082Z,3.21
2023-01-17T06:55:34.794Z,3.33
2023-01-17T06:58:39.176Z,3.11
2023-01-17T07:01:45.710Z,3.09
2023-01-17T07:04:50.083Z,3.08
2023-01-17T07:07:53.766Z,3.06
2023-01-17T07:11:03.383Z,2.95
2023-01-17T07:14:15.204Z,2.98
2023-01-17T07:17:22.832Z,3.21
2023-01-17T07:20:28.528Z,3.31
2023-01-17T07:23:32.648Z,3.38
2023-01-17T07:26:38.824Z,3.44
2023-01-17T07:29:45.400Z,3.52
2023-01-17T07:32:55.147Z,3.25
2023-01-17T07:36:05.297Z,3.35
2023-01-17T07:39:11.573Z,3.07
2023-01-17T07:42:18.614Z,3.36
2023-01-17T07:45:24.571Z,3.34
2023-01-17T07:48:29.645Z,3.46
2023-01-17T07:51:36.692Z,3.55
2023-01-17T07:54:42.323Z,3.73
2023-01-17T07:57:51.500Z,3.91
2023-01-17T08:01:05.723Z,4.00
2023-01-17T08:04:12.986Z,4.16
2023-01-17T08:07:25.965Z,4.35
2023-01-17T08:10:33.029Z,4.58
2023-01-17T08:13:39.286Z,4.74
2023-01-17T08:16:48.466Z,4.93
2023-01-17T08:19:58.476Z,5.12
2023-01-17T08:23:05.619Z,5.17
2023-01-17T08:26:10.209Z,5.27
2023-01-17T08:29:19.929Z,5.50
2023-01-17T08:32:27.119Z,5.52
2023-01-17T08:35:35.563Z,5.42
2023-01-17T08:38:40.751Z,5.27
2023-01-17T08:41:45.408Z,4.93
2023-01-17T08:44:50.145Z,5.03
2023-01-17T08:47:54.280Z,4.40
2023-01-17T08:51:13.265Z,4.47
2023-01-17T08:54:17.957Z,4.61
2023-01-17T08:57:25.516Z,4.59
2023-01-17T09:00:46.657Z,4.14
2023-01-17T09:04:04.903Z,4.24
2023-01-17T09:07:29.089Z,3.88
2023-01-17T09:10:46.647Z,4.53
2023-01-17T09:13:55.768Z,4.02
2023-01-17T09:17:07.492Z,4.16
2023-01-17T09:20:24.404Z,3.97
2023-01-17T09:23:30.692Z,4.85
2023-01-17T09:26:45.086Z,4.96
2023-01-17T09:29:49.257Z,4.24
2023-01-17T09:32:55.420Z,4.44
2023-01-17T09:36:01.896Z,4.15
2023-01-17T09:39:10.325Z,4.29
2023-01-17T09:42:42.410Z,4.73
2023-01-17T09:45:46.908Z,4.47
2023-01-17T09:48:59.744Z,4.83
2023-01-17T09:52:05.764Z,4.60
2023-01-17T09:55:22.737Z,4.94
2023-01-17T09:58:58.143Z,4.94
2023-01-17T10:02:37.027Z,4.90
2023-01-17T10:06:20.242Z,4.77
2023-01-17T10:09:47.373Z,4.52
2023-01-17T10:13:24.706Z,4.37
2023-01-17T10:16:47.125Z,4.44
2023-01-17T10:20:12.103Z,4.84
2023-01-17T10:23:57.354Z,5.08
2023-01-17T10:27:02.242Z,4.85
2023-01-17T10:30:37.350Z,4.90
2023-01-17T10:33:53.493Z,5.09
2023-01-17T10:37:21.544Z,5.19
2023-01-17T10:41:06.515Z,5.27
2023-01-17T10:44:30.979Z,5.50
2023-01-17T10:47:38.459Z,5.42
2023-01-17T10:51:44.198Z,5.52
2023-01-17T10:55:14.407Z,5.62
2023-01-17T10:58:18.501Z,5.65
2023-01-17T11:01:22.477Z,5.90
2023-01-17T11:04:42.987Z,5.94
2023-01-17T11:08:10.048Z,5.94
2023-01-17T11:11:15.516Z,6.03
2023-01-17T11:14:23.108Z,5.94
2023-01-17T11:17:29.794Z,6.23
2023-01-17T11:20:39.234Z,6.16
2023-01-17T11:23:55.877Z,6.18
2023-01-17T11:27:02.272Z,6.29
2023-01-17T11:30:19.550Z,6.34
2023-01-17T11:33:57.283Z,6.05
2023-01-17T11:37:20.942Z,6.33
2023-01-17T11:40:41.264Z,6.42
2023-01-17T11:44:00.508Z,6.41
2023-01-17T11:47:11.734Z,6.51
2023-01-17T11:50:27.810Z,6.63
2023-01-17T11:53:37.858Z,7.21
2023-01-17T11:56:47.256Z,7.41
2023-01-17T12:00:03.984Z,7.64
2023-01-17T12:03:56.795Z,7.67
2023-01-17T12:07:26.062Z,7.73
2023-01-17T12:10:40.470Z,7.96
2023-01-17T12:14:49.921Z,8.05
2023-01-17T12:18:12.580Z,7.72
2023-01-17T12:21:32.489Z,7.64
2023-01-17T12:24:45.730Z,7.46
2023-01-17T12:28:06.342Z,7.34
2023-01-17T12:31:30.874Z,7.35
2023-01-17T12:34:56.951Z,7.18
2023-01-17T12:38:14.049Z,7.32
2023-01-17T12:41:30.072Z,7.36
2023-01-17T12:45:00.276Z,7.28
2023-01-17T12:48:15.228Z,7.06
2023-01-17T12:51:40.608Z,7.18
2023-01-17T12:54:50.039Z,7.11
2023-01-17T12:58:01.759Z,6.96
2023-01-17T13:01:26.494Z,7.06
2023-01-17T13:04:57.481Z,7.01
2023-01-17T13:08:26.012Z,6.99
2023-01-17T13:11:49.365Z,6.86
2023-01-17T13:14:55.250Z,6.61
2023-01-17T13:18:23.638Z,6.66
2023-01-17T13:21:30.813Z,6.68
2023-01-17T13:25:12.979Z,6.61
2023-01-17T13:28:28.435Z,6.51
2023-01-17T13:31:44.179Z,6.49
2023-01-17T13:35:09.475Z,6.46
2023-01-17T13:38:29.937Z,6.44
2023-01-17T13:41:51.718Z,6.40
2023-01-17T13:44:57.504Z,6.33
2023-01-17T13:48:15.225Z,6.34
2023-01-17T13:51:20.885Z,6.23
2023-01-17T13:54:36.067Z,6.38
2023-01-17T13:57:45.542Z,6.35
2023-01-17T14:00:51.580Z,6.29
2023-01-17T14:03:55.678Z,6.24
2023-01-17T14:07:21.769Z,6.07
2023-01-17T14:10:41.631Z,6.22
2023-01-17T14:13:47.785Z,5.96
2023-01-17T14:16:53.057Z,6.00
2023-01-17T14:20:06.295Z,6.05
2023-01-17T14:23:27.452Z,5.98
2023-01-17T14:26:49.034Z,5.93
2023-01-17T14:30:03.812Z,5.93
2023-01-17T14:33:26.696Z,5.91
2023-01-17T14:36:35.663Z,5.80
2023-01-17T14:39:51.580Z,5.66
2023-01-17T14:43:17.325Z,5.98
2023-01-17T14:46:34.227Z,5.90
2023-01-17T14:49:38.128Z,5.92
2023-01-17T14:52:42.407Z,5.91
2023-01-17T14:56:12.393Z,5.54
2023-01-17T14:59:23.524Z,5.43
2023-01-17T15:02:59.305Z,5.45
2023-01-17T15:06:20.252Z,5.44
2023-01-17T15:09:51.802Z,5.70
2023-01-17T15:13:15.595Z,5.38
2023-01-17T15:16:48.777Z,5.17
2023-01-17T15:20:04.178Z,5.19
2023-01-17T15:23:40.637Z,5.39
2023-01-17T15:27:08.047Z,5.22
2023-01-17T15:30:47.905Z,5.43
2023-01-17T15:34:30.485Z,5.41
2023-01-17T15:37:55.008Z,4.96
2023-01-17T15:41:30.615Z,5.18
2023-01-17T15:45:07.242Z,4.83
2023-01-17T15:49:04.833Z,4.91
2023-01-17T15:52:45.795Z,5.12
2023-01-17T15:56:28.469Z,4.67
2023-01-17T16:00:18.571Z,5.07
2023-01-17T16:03:33.841Z,5.15
2023-01-17T16:07:05.092Z,4.99
2023-01-17T16:10:36.183Z,5.00
2023-01-17T16:13:58.911Z,4.94
2023-01-17T16:17:23.443Z,4.92
2023-01-17T16:20:48.366Z,4.86
2023-01-17T16:24:32.289Z,4.92
2023-01-17T16:27:57.684Z,4.97
2023-01-17T16:31:20.609Z,4.96
2023-01-17T16:34:47.160Z,4.69
2023-01-17T16:38:20.714Z,4.81
2023-01-17T16:41:44.762Z,5.02
2023-01-17T16:45:07.626Z,4.65
2023-01-17T16:52:23.274Z,5.04
2023-01-17T16:55:46.681Z,5.24
2023-01-17T16:59:07.650Z,4.62
2023-01-17T17:02:31.001Z,5.18
2023-01-17T17:06:11.175Z,4.58
2023-01-17T17:10:02.784Z,4.93
2023-01-17T17:13:26.119Z,5.04
2023-01-17T17:17:22.517Z,5.13
2023-01-17T17:21:04.852Z,4.90
2023-01-17T17:24:41.164Z,5.12
2023-01-17T17:28:20.082Z,5.12
2023-01-17T17:32:06.533Z,5.09
2023-01-17T17:36:08.316Z,5.06
2023-01-17T17:39:59.067Z,4.76
2023-01-17T17:43:45.957Z,4.50
2023-01-17T17:48:07.657Z,4.54
2023-01-17T17:52:32.122Z,4.97
2023-01-17T18:01:21.399Z,4.75
2023-01-17T18:09:45.345Z,4.81
2023-01-17T18:18:15.642Z,4.56
2023-01-17T18:31:03.907Z,4.66
2023-01-17T19:03:25.365Z,4.17
2023-01-17T19:08:06.569Z,4.21
2023-01-17T19:12:11.025Z,4.16
2023-01-17T19:16:15.475Z,4.19
2023-01-17T19:20:25.269Z,4.13
2023-01-17T19:41:04.192Z,3.78
2023-01-17T19:53:11.185Z,3.70
2023-01-17T20:10:11.347Z,3.70
2023-01-17T20:14:23.449Z,3.73
2023-01-17T20:27:04.833Z,3.87
2023-01-17T20:31:11.566Z,3.93
2023-01-17T20:35:21.238Z,3.98
2023-01-17T20:47:21.852Z,4.05
2023-01-17T20:51:43.392Z,4.01
2023-01-17T20:56:10.992Z,4.10
2023-01-17T21:00:05.847Z,4.14
2023-01-17T21:04:11.283Z,4.15
2023-01-17T21:08:10.294Z,4.17
2023-01-17T21:12:10.746Z,4.20
2023-01-17T21:16:28.102Z,4.25
2023-01-17T21:41:11.021Z,3.79
2023-01-17T21:45:20.863Z,3.95
2023-01-17T22:06:53.058Z,3.88
2023-01-17T22:11:07.328Z,3.88
2023-01-17T22:15:08.217Z,4.04
2023-01-17T22:19:15.658Z,4.12
2023-01-17T22:56:18.896Z,3.69
2023-01-17T23:00:35.170Z,3.65
2023-01-17T23:04:22.267Z,3.43
2023-01-17T23:25:06.511Z,3.01
2023-01-17T23:34:20.576Z,3.00
2023-01-17T23:48:11.558Z,2.36
2023-01-17T23:52:16.352Z,2.07
2023-01-17T23:56:10.467Z,2.00
2023-01-17T23:59:57.659Z,2.08
